createdAt,value
2019-05-03T00:02:06.031Z,73.37
2019-05-03T00:04:36.498Z,73.48
2019-05-03T00:07:06.131Z,73.07
2019-05-03T00:09:35.567Z,73.82
2019-05-03T00:12:05.317Z,74.62
2019-05-03T00:14:35.896Z,75.41
2019-05-03T00:17:05.865Z,75.41
2019-05-03T00:19:35.291Z,76.19
2019-05-03T00:22:04.858Z,76.96
2019-05-03T00:24:34.285Z,78.01
2019-05-03T00:27:03.763Z,78.19
2019-05-03T00:29:33.191Z,78.15
2019-05-03T00:32:04.446Z,77.40
2019-05-03T00:34:38.231Z,78.13
2019-05-03T00:37:12.612Z,76.36
2019-05-03T00:39:56.206Z,75.12
2019-05-03T00:42:27.261Z,76.21
2019-05-03T00:44:56.764Z,76.55
2019-05-03T00:47:26.239Z,76.51
2019-05-03T00:49:55.672Z,76.54
2019-05-03T00:52:25.215Z,77.25
2019-05-03T00:54:54.646Z,75.38
2019-05-03T00:57:24.117Z,74.04
2019-05-03T00:59:53.612Z,73.99
2019-05-03T01:02:23.154Z,73.80
2019-05-03T01:04:52.584Z,73.45
2019-05-03T01:07:22.364Z,73.92
2019-05-03T01:09:51.928Z,73.87
2019-05-03T01:12:21.948Z,75.45
2019-05-03T01:14:53.191Z,74.81
2019-05-03T01:17:22.666Z,74.23
2019-05-03T01:19:52.276Z,74.85
2019-05-03T01:22:22.675Z,75.28
2019-05-03T01:24:52.308Z,75.72
2019-05-03T01:27:23.325Z,76.19
2019-05-03T01:29:52.766Z,76.14
2019-05-03T01:32:22.387Z,76.50
2019-05-03T01:34:52.459Z,76.71
2019-05-03T01:37:22.627Z,76.88
2019-05-03T01:39:52.720Z,76.45
2019-05-03T01:42:22.742Z,76.64
2019-05-03T01:44:52.406Z,75.93
2019-05-03T01:47:41.942Z,76.05
2019-05-03T01:50:13.249Z,75.29
2019-05-03T01:52:44.354Z,76.17
2019-05-03T01:55:15.988Z,74.90
2019-05-03T01:57:45.603Z,76.27
2019-05-03T02:00:17.444Z,73.77
2019-05-03T02:02:48.547Z,73.24
2019-05-03T02:05:19.725Z,72.52
2019-05-03T02:07:49.282Z,71.29
2019-05-03T02:10:18.754Z,71.46
2019-05-03T02:12:48.339Z,69.76
2019-05-03T02:15:18.014Z,70.08
2019-05-03T02:17:47.502Z,69.82
2019-05-03T02:20:16.970Z,69.20
2019-05-03T02:22:46.466Z,69.27
2019-05-03T02:25:16.090Z,70.33
2019-05-03T02:27:47.039Z,70.93
2019-05-03T02:30:16.849Z,71.90
2019-05-03T02:32:46.413Z,72.73
2019-05-03T02:35:16.035Z,73.33
2019-05-03T02:37:47.094Z,73.10
2019-05-03T02:40:20.216Z,73.17
2019-05-03T02:43:05.810Z,73.17
2019-05-03T02:45:46.393Z,72.76
2019-05-03T02:48:36.439Z,73.81
2019-05-03T02:51:06.579Z,73.62
2019-05-03T02:53:36.285Z,72.82
2019-05-03T02:56:15.224Z,73.86
2019-05-03T02:58:37.085Z,71.96
2019-05-03T03:01:06.883Z,71.77
2019-05-03T03:03:37.642Z,72.30
2019-05-03T03:06:07.263Z,72.57
2019-05-03T03:08:38.585Z,71.39
2019-05-03T03:11:09.108Z,70.28
2019-05-03T03:13:39.480Z,69.66
2019-05-03T03:16:11.986Z,69.07
2019-05-03T03:18:41.669Z,69.39
2019-05-03T03:21:17.639Z,70.30
2019-05-03T03:24:02.245Z,71.61
2019-05-03T03:26:38.013Z,71.57
2019-05-03T03:29:08.359Z,73.05
2019-05-03T03:31:58.924Z,73.98
2019-05-03T03:34:38.746Z,75.37
2019-05-03T03:37:10.077Z,76.03
2019-05-03T03:39:37.941Z,76.87
2019-05-03T03:42:09.348Z,77.60
2019-05-03T03:44:39.284Z,78.10
2019-05-03T03:47:12.164Z,78.48
2019-05-03T03:49:46.334Z,78.56
2019-05-03T03:52:17.170Z,79.17
2019-05-03T03:54:48.284Z,78.65
2019-05-03T03:57:18.063Z,76.85
2019-05-03T03:59:49.833Z,76.19
2019-05-03T04:02:20.796Z,73.96
2019-05-03T04:04:50.974Z,74.95
2019-05-03T04:07:20.766Z,74.75
2019-05-03T04:09:51.586Z,75.19
2019-05-03T04:12:22.661Z,75.26
2019-05-03T04:15:00.714Z,76.02
2019-05-03T04:17:50.866Z,74.96
2019-05-03T04:20:22.232Z,74.62
2019-05-03T04:22:51.736Z,73.52
2019-05-03T04:25:22.259Z,73.66
2019-05-03T04:27:55.778Z,73.92
2019-05-03T04:30:26.187Z,74.18
2019-05-03T04:32:56.521Z,73.96
2019-05-03T04:35:26.889Z,73.81
2019-05-03T04:37:56.472Z,74.23
2019-05-03T04:40:26.444Z,74.47
2019-05-03T04:42:56.126Z,74.73
2019-05-03T04:45:26.005Z,74.33
2019-05-03T04:47:56.290Z,74.21
2019-05-03T04:50:26.073Z,74.35
2019-05-03T04:52:56.616Z,73.73
2019-05-03T04:55:26.917Z,73.62
2019-05-03T04:57:56.707Z,73.43
2019-05-03T05:00:26.383Z,73.72
2019-05-03T05:02:55.784Z,74.46
2019-05-03T05:05:26.076Z,73.92
2019-05-03T05:07:56.131Z,73.28
2019-05-03T05:10:26.406Z,72.97
2019-05-03T05:12:56.020Z,72.96
2019-05-03T05:15:26.538Z,72.87
2019-05-03T05:18:00.962Z,72.60
2019-05-03T05:20:32.032Z,71.34
2019-05-03T05:23:01.432Z,70.81
2019-05-03T05:25:35.711Z,68.79
2019-05-03T05:28:07.136Z,69.62
2019-05-03T05:30:36.740Z,68.24
2019-05-03T05:33:07.856Z,68.34
2019-05-03T05:35:37.309Z,69.60
2019-05-03T05:38:06.732Z,70.09
2019-05-03T05:40:38.638Z,71.88
2019-05-03T05:43:08.586Z,71.26
2019-05-03T05:45:38.022Z,70.69
2019-05-03T05:48:09.156Z,71.90
2019-05-03T05:50:41.816Z,72.11
2019-05-03T05:53:11.284Z,71.66
2019-05-03T05:55:45.058Z,70.89
2019-05-03T05:58:17.158Z,69.71
2019-05-03T06:00:48.221Z,68.31
2019-05-03T06:03:17.649Z,67.94
2019-05-03T06:05:47.263Z,68.00
2019-05-03T06:08:30.205Z,65.20
2019-05-03T06:11:10.367Z,64.57
2019-05-03T06:13:44.563Z,65.93
2019-05-03T06:16:15.854Z,65.03
2019-05-03T06:18:54.432Z,65.36
2019-05-03T06:21:25.838Z,65.38
2019-05-03T06:23:57.129Z,65.67
2019-05-03T06:26:44.336Z,65.29
2019-05-03T06:29:14.977Z,64.99
2019-05-03T06:32:02.811Z,64.14
2019-05-03T06:34:32.222Z,62.57
2019-05-03T06:37:06.044Z,62.81
2019-05-03T06:39:35.593Z,63.52
2019-05-03T06:42:05.331Z,62.54
2019-05-03T06:44:35.049Z,59.84
2019-05-03T06:47:08.742Z,60.61
2019-05-03T06:49:39.329Z,61.61
2019-05-03T06:52:07.460Z,61.36
2019-05-03T06:54:37.868Z,61.35
2019-05-03T06:57:09.648Z,61.37
2019-05-03T06:59:45.150Z,62.77
2019-05-03T07:02:32.040Z,61.22
2019-05-03T07:05:05.066Z,60.56
2019-05-03T07:07:54.748Z,64.15
2019-05-03T07:10:26.042Z,64.45
2019-05-03T07:12:59.893Z,62.17
2019-05-03T07:15:29.478Z,62.04
2019-05-03T07:17:58.989Z,60.42
2019-05-03T07:20:28.432Z,62.30
2019-05-03T07:22:57.841Z,60.94
2019-05-03T07:25:27.342Z,61.68
2019-05-03T07:27:56.775Z,61.82
2019-05-03T07:30:26.211Z,62.71
2019-05-03T07:32:57.410Z,62.03
2019-05-03T07:35:26.846Z,59.35
2019-05-03T07:37:57.808Z,59.95
2019-05-03T07:40:27.249Z,58.66
2019-05-03T07:42:56.692Z,57.22
2019-05-03T07:45:26.593Z,57.83
2019-05-03T07:47:56.157Z,57.71
2019-05-03T07:50:26.086Z,58.17
2019-05-03T07:52:55.955Z,57.55
2019-05-03T07:55:45.500Z,57.23
2019-05-03T07:58:19.086Z,58.02
2019-05-03T08:01:02.913Z,55.58
2019-05-03T08:03:21.090Z,56.99
2019-05-03T08:05:50.524Z,56.03
2019-05-03T08:08:20.140Z,57.75
2019-05-03T08:10:50.004Z,58.91
2019-05-03T08:13:21.261Z,56.96
2019-05-03T08:15:50.766Z,57.48
2019-05-03T08:18:20.218Z,57.66
2019-05-03T08:20:49.739Z,55.71
2019-05-03T08:23:27.554Z,54.52
2019-05-03T08:25:50.926Z,55.00
2019-05-03T08:28:20.498Z,57.74
2019-05-03T08:31:00.485Z,56.59
2019-05-03T08:33:48.020Z,56.13
2019-05-03T08:36:17.547Z,54.37
2019-05-03T08:38:46.969Z,52.38
2019-05-03T08:41:18.044Z,51.48
2019-05-03T08:43:47.486Z,50.34
2019-05-03T08:46:18.430Z,51.08
2019-05-03T08:48:47.934Z,49.00
2019-05-03T08:51:17.390Z,50.01
2019-05-03T08:53:46.828Z,46.28
2019-05-03T08:56:16.241Z,46.45
2019-05-03T08:58:45.770Z,46.98
2019-05-03T09:01:15.207Z,44.49
2019-05-03T09:03:45.794Z,48.17
2019-05-03T09:06:16.846Z,48.27
2019-05-03T09:08:46.284Z,48.42
2019-05-03T09:11:17.255Z,48.57
2019-05-03T09:13:57.358Z,49.33
2019-05-03T09:16:26.908Z,46.48
2019-05-03T09:18:56.359Z,43.71
2019-05-03T09:21:26.011Z,46.17
2019-05-03T09:23:55.674Z,47.92
2019-05-03T09:26:29.106Z,48.78
2019-05-03T09:28:56.284Z,48.67
2019-05-03T09:31:25.862Z,47.35
2019-05-03T09:33:56.883Z,47.26
2019-05-03T09:36:26.359Z,48.82
2019-05-03T09:38:55.848Z,46.76
2019-05-03T09:41:25.718Z,47.62
2019-05-03T09:43:55.676Z,48.13
2019-05-03T09:46:28.163Z,49.26
2019-05-03T09:49:10.210Z,52.30
2019-05-03T09:51:29.218Z,49.51
2019-05-03T09:54:05.297Z,48.99
2019-05-03T09:56:55.915Z,49.69
2019-05-03T09:59:25.501Z,52.03
2019-05-03T10:01:55.099Z,52.00
2019-05-03T10:04:25.538Z,51.30
2019-05-03T10:06:55.175Z,50.26
2019-05-03T10:09:26.119Z,48.84
2019-05-03T10:11:56.085Z,51.56
2019-05-03T10:14:25.671Z,49.05
2019-05-03T10:17:15.960Z,46.26
2019-05-03T10:19:45.306Z,46.89
2019-05-03T10:22:15.384Z,43.25
2019-05-03T10:24:45.518Z,45.91
2019-05-03T10:27:15.252Z,45.54
2019-05-03T10:29:44.822Z,46.93
2019-05-03T10:32:18.502Z,46.78
2019-05-03T10:34:55.201Z,47.44
2019-05-03T10:37:29.578Z,47.66
2019-05-03T10:40:00.638Z,46.30
2019-05-03T10:42:30.427Z,45.99
2019-05-03T10:44:59.908Z,46.08
2019-05-03T10:47:29.628Z,45.12
2019-05-03T10:49:59.055Z,44.29
2019-05-03T10:52:34.836Z,45.88
2019-05-03T10:55:05.751Z,51.88
2019-05-03T10:57:37.069Z,56.70
2019-05-03T11:00:39.350Z,60.67
2019-05-03T11:02:46.969Z,61.21
2019-05-03T11:05:16.432Z,62.61
2019-05-03T11:07:45.883Z,60.69
2019-05-03T11:10:15.530Z,59.10
2019-05-03T11:12:45.950Z,55.17
2019-05-03T11:15:18.518Z,56.27
2019-05-03T11:17:48.056Z,58.06
2019-05-03T11:20:28.373Z,54.12
2019-05-03T11:22:51.820Z,51.62
2019-05-03T11:25:21.238Z,49.22
2019-05-03T11:27:52.330Z,50.63
2019-05-03T11:30:21.805Z,47.82
2019-05-03T11:32:52.918Z,55.66
2019-05-03T11:35:27.024Z,61.13
2019-05-03T11:37:58.130Z,64.31
2019-05-03T11:40:27.586Z,62.64
2019-05-03T11:42:58.731Z,60.31
2019-05-03T11:45:28.131Z,59.68
2019-05-03T11:47:59.226Z,59.83
2019-05-03T11:50:28.699Z,63.02
2019-05-03T11:52:58.136Z,62.38
2019-05-03T11:55:30.313Z,61.51
2019-05-03T11:57:59.781Z,64.17
2019-05-03T12:00:31.118Z,61.85
2019-05-03T12:03:02.212Z,60.28
2019-05-03T12:05:32.303Z,58.76
2019-05-03T12:08:01.990Z,56.51
2019-05-03T12:10:48.527Z,56.35
2019-05-03T12:13:06.758Z,53.74
2019-05-03T12:15:36.237Z,51.69
2019-05-03T12:18:08.218Z,55.70
2019-05-03T12:20:39.420Z,53.99
2019-05-03T12:23:10.261Z,56.59
2019-05-03T12:25:41.228Z,55.97
2019-05-03T12:28:10.981Z,53.94
2019-05-03T12:30:40.714Z,54.44
2019-05-03T12:33:10.395Z,54.53
2019-05-03T12:35:39.791Z,55.09
2019-05-03T12:38:09.300Z,55.66
2019-05-03T12:40:38.706Z,53.20
2019-05-03T12:43:08.197Z,53.36
2019-05-03T12:45:37.561Z,54.58
2019-05-03T12:48:07.067Z,54.31
2019-05-03T12:50:36.757Z,51.65
2019-05-03T12:53:06.672Z,48.58
2019-05-03T12:55:36.306Z,44.71
2019-05-03T12:58:06.542Z,44.84
2019-05-03T13:00:48.630Z,46.75
2019-05-03T13:03:19.801Z,45.99
2019-05-03T13:05:49.321Z,45.36
2019-05-03T13:08:37.221Z,45.21
2019-05-03T13:11:07.492Z,41.82
2019-05-03T13:13:38.460Z,42.90
2019-05-03T13:16:10.671Z,43.07
2019-05-03T13:18:40.109Z,44.32
2019-05-03T13:21:09.786Z,46.83
2019-05-03T13:23:39.245Z,44.36
2019-05-03T13:26:08.689Z,43.62
2019-05-03T13:28:38.154Z,42.78
2019-05-03T13:31:07.687Z,44.80
2019-05-03T13:33:37.093Z,44.88
2019-05-03T13:36:06.539Z,43.11
2019-05-03T13:38:36.032Z,44.82
2019-05-03T13:41:06.599Z,55.60
2019-05-03T13:43:36.168Z,58.54
2019-05-03T13:46:05.851Z,59.70
2019-05-03T13:48:45.475Z,58.81
2019-05-03T13:51:06.503Z,59.79
2019-05-03T13:53:35.903Z,60.47
2019-05-03T13:56:05.618Z,59.76
2019-05-03T13:58:35.865Z,57.77
2019-05-03T14:01:05.878Z,57.37
2019-05-03T14:03:35.756Z,56.79
2019-05-03T14:06:08.852Z,56.66
2019-05-03T14:08:38.376Z,55.27
2019-05-03T14:11:07.824Z,53.98
2019-05-03T14:13:37.239Z,54.55
2019-05-03T14:16:06.821Z,53.04
2019-05-03T14:18:41.072Z,50.99
2019-05-03T14:21:10.667Z,49.44
2019-05-03T14:23:57.879Z,50.67
2019-05-03T14:26:27.395Z,49.08
2019-05-03T14:28:56.807Z,51.22
2019-05-03T14:31:26.263Z,52.25
2019-05-03T14:33:56.038Z,52.89
2019-05-03T14:36:25.554Z,55.07
2019-05-03T14:38:55.185Z,54.52
2019-05-03T14:43:55.730Z,56.49
2019-05-03T14:46:32.766Z,55.45
2019-05-03T14:48:56.515Z,55.47
2019-05-03T14:51:26.020Z,52.53
2019-05-03T14:53:57.036Z,53.26
2019-05-03T14:56:45.532Z,55.31
2019-05-03T14:59:39.258Z,52.86
2019-05-03T15:02:39.800Z,53.46
2019-05-03T15:04:57.522Z,51.21
2019-05-03T15:07:26.953Z,52.81
2019-05-03T15:09:56.378Z,56.88
2019-05-03T15:12:27.510Z,57.87
2019-05-03T15:14:56.897Z,53.42
2019-05-03T15:17:26.348Z,50.65
2019-05-03T15:19:55.750Z,51.45
2019-05-03T15:22:25.455Z,52.05
2019-05-03T15:24:54.923Z,52.73
2019-05-03T15:27:24.940Z,52.98
2019-05-03T15:29:55.571Z,55.07
2019-05-03T15:32:25.104Z,55.29
2019-05-03T15:34:55.366Z,55.86
2019-05-03T15:37:25.569Z,55.66
2019-05-03T15:39:55.126Z,56.34
2019-05-03T15:42:25.525Z,58.26
2019-05-03T15:45:14.638Z,59.43
2019-05-03T15:47:57.618Z,56.35
2019-05-03T15:50:27.215Z,56.63
2019-05-03T15:52:56.643Z,55.97
2019-05-03T15:55:26.062Z,56.11
2019-05-03T15:57:57.060Z,55.21
2019-05-03T16:00:26.487Z,55.45
2019-05-03T16:03:07.486Z,56.22
2019-05-03T16:05:27.536Z,59.83
2019-05-03T16:07:58.619Z,62.73
2019-05-03T16:10:28.184Z,61.96
2019-05-03T16:12:57.638Z,62.33
2019-05-03T16:15:27.216Z,60.99
2019-05-03T16:17:56.702Z,58.98
2019-05-03T16:20:26.653Z,55.15
2019-05-03T16:22:56.163Z,51.50
2019-05-03T16:25:25.894Z,50.23
2019-05-03T16:27:57.043Z,46.40
2019-05-03T16:30:41.884Z,46.46
2019-05-03T16:33:23.963Z,49.44
2019-05-03T16:35:44.399Z,55.61
2019-05-03T16:38:15.681Z,57.15
2019-05-03T16:40:45.345Z,56.01
2019-05-03T16:43:16.146Z,57.01
2019-05-03T16:45:45.880Z,62.82
2019-05-03T16:48:18.376Z,67.47
2019-05-03T16:50:47.967Z,68.93
2019-05-03T16:53:18.151Z,69.47
2019-05-03T16:55:47.735Z,69.49
2019-05-03T16:58:17.357Z,68.48
2019-05-03T17:00:46.855Z,68.51
2019-05-03T17:03:17.939Z,68.62
2019-05-03T17:05:48.992Z,69.44
2019-05-03T17:08:35.126Z,68.77
2019-05-03T17:11:07.996Z,68.06
2019-05-03T17:13:37.515Z,66.20
2019-05-03T17:16:07.017Z,64.85
2019-05-03T17:18:36.527Z,64.79
2019-05-03T17:21:06.982Z,65.24
2019-05-03T17:23:36.415Z,67.17
2019-05-03T17:26:05.818Z,69.35
2019-05-03T17:28:36.893Z,72.37
2019-05-03T17:31:06.295Z,73.34
2019-05-03T17:33:37.221Z,76.53
2019-05-03T17:36:06.621Z,75.96
2019-05-03T17:38:36.585Z,72.83
2019-05-03T17:41:10.480Z,71.02
2019-05-03T17:43:45.154Z,70.02
2019-05-03T17:46:15.009Z,68.03
2019-05-03T17:48:45.228Z,68.29
2019-05-03T17:51:32.638Z,68.64
2019-05-03T17:54:05.190Z,68.98
2019-05-03T17:56:36.300Z,69.14
2019-05-03T17:59:10.651Z,69.62
2019-05-03T18:01:58.272Z,69.37
2019-05-03T18:04:35.278Z,69.53
2019-05-03T18:07:07.156Z,69.89
2019-05-03T18:09:44.908Z,72.42
2019-05-03T18:12:15.068Z,76.01
2019-05-03T18:14:45.096Z,76.96
2019-05-03T18:17:14.853Z,77.91
2019-05-03T18:19:44.855Z,79.66
2019-05-03T18:22:15.280Z,80.73
2019-05-03T18:24:46.380Z,81.32
2019-05-03T18:27:15.790Z,82.95
2019-05-03T18:29:45.228Z,83.42
2019-05-03T18:32:14.832Z,82.93
2019-05-03T18:34:45.372Z,83.38
2019-05-03T18:37:16.488Z,83.28
2019-05-03T18:39:47.625Z,83.53
2019-05-03T18:42:24.612Z,83.88
2019-05-03T18:44:55.725Z,83.88
2019-05-03T18:47:26.785Z,85.09
2019-05-03T18:49:56.570Z,83.10
2019-05-03T18:52:26.054Z,82.68
2019-05-03T18:54:55.637Z,81.09
2019-05-03T18:57:25.606Z,79.09
2019-05-03T18:59:55.608Z,70.29
2019-05-03T19:02:25.744Z,68.07
2019-05-03T19:04:55.461Z,64.27
2019-05-03T19:07:26.556Z,65.64
2019-05-03T19:09:57.782Z,64.12
2019-05-03T19:12:40.868Z,65.83
2019-05-03T19:15:11.504Z,64.83
2019-05-03T19:17:48.441Z,65.04
2019-05-03T19:20:19.314Z,64.87
2019-05-03T19:22:48.823Z,65.69
2019-05-03T19:25:18.328Z,65.73
2019-05-03T19:27:49.305Z,66.52
2019-05-03T19:30:18.832Z,66.11
2019-05-03T19:32:48.400Z,66.37
2019-05-03T19:35:18.253Z,66.45
2019-05-03T19:37:47.755Z,66.78
2019-05-03T19:40:17.334Z,66.67
2019-05-03T19:42:46.788Z,65.30
2019-05-03T19:45:16.234Z,66.39
2019-05-03T19:47:45.687Z,65.71
2019-05-03T19:50:15.721Z,65.00
2019-05-03T19:53:05.071Z,66.21
2019-05-03T19:55:34.414Z,66.58
2019-05-03T19:58:05.446Z,67.24
2019-05-03T20:00:51.954Z,66.73
2019-05-03T20:03:37.800Z,66.41
2019-05-03T20:06:11.634Z,66.24
2019-05-03T20:08:44.430Z,66.43
2019-05-03T20:11:15.655Z,68.00
2019-05-03T20:13:46.682Z,66.42
2019-05-03T20:16:16.377Z,66.92
2019-05-03T20:18:45.893Z,66.26
2019-05-03T20:21:15.372Z,66.27
2019-05-03T20:23:47.095Z,66.19
2019-05-03T20:26:15.987Z,64.62
2019-05-03T20:28:45.543Z,63.04
2019-05-03T20:31:15.365Z,62.68
2019-05-03T20:33:45.727Z,61.77
2019-05-03T20:36:15.316Z,60.02
2019-05-03T20:38:44.777Z,60.41
2019-05-03T20:41:14.844Z,60.54
2019-05-03T20:43:49.235Z,61.43
2019-05-03T20:46:25.359Z,61.08
2019-05-03T20:48:56.177Z,61.48
2019-05-03T20:51:25.644Z,60.09
2019-05-03T20:53:55.389Z,62.29
2019-05-03T20:56:24.939Z,63.16
2019-05-03T20:58:54.968Z,63.44
2019-05-03T21:01:25.676Z,64.05
2019-05-03T21:03:55.260Z,64.74
2019-05-03T21:06:35.124Z,65.04
2019-05-03T21:08:56.576Z,64.75
2019-05-03T21:11:26.088Z,64.61
2019-05-03T21:13:55.551Z,63.88
2019-05-03T21:16:26.674Z,64.63
2019-05-03T21:19:00.458Z,65.88
2019-05-03T21:21:37.423Z,66.21
2019-05-03T21:24:20.729Z,65.87
2019-05-03T21:26:54.676Z,64.08
2019-05-03T21:29:24.309Z,62.75
2019-05-03T21:31:55.259Z,63.33
2019-05-03T21:34:25.287Z,63.07
2019-05-03T21:36:54.716Z,62.95
2019-05-03T21:39:24.647Z,62.60
2019-05-03T21:41:55.535Z,62.71
2019-05-03T21:44:31.861Z,63.10
2019-05-03T21:47:09.037Z,62.03
2019-05-03T21:49:40.259Z,61.11
2019-05-03T21:52:09.776Z,61.16
2019-05-03T21:54:39.224Z,61.08
2019-05-03T21:57:09.959Z,61.55
2019-05-03T21:59:39.464Z,62.13
2019-05-03T22:02:08.911Z,62.32
2019-05-03T22:04:39.979Z,62.38
2019-05-03T22:07:09.626Z,62.44
2019-05-03T22:09:39.126Z,62.20
2019-05-03T22:12:08.574Z,62.39
2019-05-03T22:14:51.570Z,62.84
2019-05-03T22:17:39.100Z,63.04
2019-05-03T22:20:13.464Z,63.27
2019-05-03T22:22:47.538Z,64.77
2019-05-03T22:25:19.655Z,65.28
2019-05-03T22:27:49.078Z,65.99
2019-05-03T22:30:18.581Z,67.12
2019-05-03T22:32:48.020Z,68.41
2019-05-03T22:35:17.445Z,68.65
2019-05-03T22:37:48.471Z,69.80
2019-05-03T22:40:17.912Z,71.17
2019-05-03T22:42:47.509Z,72.13
2019-05-03T22:45:16.935Z,72.98
2019-05-03T22:47:46.374Z,74.03
2019-05-03T22:50:16.182Z,74.99
2019-05-03T22:52:45.660Z,75.49
2019-05-03T22:55:15.394Z,74.79
2019-05-03T22:57:44.874Z,75.75
2019-05-03T23:00:14.793Z,76.57
2019-05-03T23:02:45.562Z,76.46
2019-05-03T23:05:15.193Z,75.56
2019-05-03T23:07:46.872Z,76.93
2019-05-03T23:10:17.398Z,75.21
2019-05-03T23:12:47.885Z,75.15
2019-05-03T23:15:17.486Z,75.91
2019-05-03T23:17:46.950Z,76.31
2019-05-03T23:20:34.573Z,76.34
2019-05-03T23:23:05.444Z,75.84
2019-05-03T23:25:35.542Z,75.75
2019-05-03T23:28:05.264Z,76.33
2019-05-03T23:30:34.731Z,77.12
2019-05-03T23:33:04.185Z,77.75
2019-05-03T23:35:34.992Z,78.58
2019-05-03T23:38:04.862Z,78.71
2019-05-03T23:40:34.797Z,78.86
2019-05-03T23:43:05.983Z,78.49
2019-05-03T23:45:35.398Z,78.81
2019-05-03T23:48:04.918Z,79.37
2019-05-03T23:50:35.339Z,79.49
2019-05-03T23:53:05.006Z,79.34
2019-05-03T23:55:45.033Z,79.87
2019-05-03T23:58:14.437Z,80.17
